Time;durP1;ratioP1;P1;durP2;ratioP2;P2;SDS_P1;SDS_P2;PMS_P1;PMS_P2;Temp;Humidity;BMP_temperature;BMP_pressure;BME280_temperature;BME280_humidity;BME280_pressure;Samples;Min_cycle;Max_cycle;Signal;HPM_P1;HPM_P2
2022/08/02 00:01:18;;;;;;;6.68;4.53;;;17.10;99.90;;;;;;5014233;28;20188;-87
2022/08/02 00:03:43;;;;;;;6.95;4.00;;;17.00;99.90;;;;;;4997235;28;20224;-88
2022/08/02 00:06:09;;;;;;;7.40;3.88;;;17.00;99.90;;;;;;5013627;28;20611;-88
2022/08/02 00:08:34;;;;;;;4.57;3.30;;;17.10;99.90;;;;;;4996748;28;20189;-87
2022/08/02 00:11:00;;;;;;;5.13;3.22;;;17.00;99.90;;;;;;5014467;28;20192;-89
2022/08/02 00:13:26;;;;;;;7.03;3.58;;;17.00;99.90;;;;;;4999534;28;20198;-88
2022/08/02 00:15:51;;;;;;;5.85;3.38;;;17.00;99.90;;;;;;4994912;28;20182;-90
2022/08/02 00:18:17;;;;;;;3.78;3.08;;;16.90;99.90;;;;;;4994422;28;20204;-88
2022/08/02 00:20:43;;;;;;;7.88;3.85;;;16.90;99.90;;;;;;4981796;28;20189;-88
2022/08/02 00:23:08;;;;;;;5.88;3.72;;;16.90;99.90;;;;;;5006415;28;20212;-86
2022/08/02 00:25:34;;;;;;;5.95;3.80;;;16.90;99.90;;;;;;4995219;28;20198;-89
2022/08/02 00:27:59;;;;;;;5.60;3.60;;;16.80;99.90;;;;;;4995999;28;20194;-89
2022/08/02 00:30:25;;;;;;;5.35;3.30;;;16.80;99.90;;;;;;4996287;28;20212;-89
2022/08/02 00:32:50;;;;;;;4.60;3.33;;;16.80;99.90;;;;;;5014139;28;20573;-87
2022/08/02 00:35:16;;;;;;;7.25;4.43;;;16.80;99.90;;;;;;4980269;28;20229;-88
2022/08/02 00:37:42;;;;;;;6.15;3.83;;;16.80;99.90;;;;;;4984764;28;20654;-88
2022/08/02 00:40:11;;;;;;;6.07;3.95;;;16.70;99.90;;;;;;5013195;28;20224;-86
2022/08/02 00:42:38;;;;;;;6.20;4.45;;;16.70;99.90;;;;;;5014235;28;20549;-88
2022/08/02 00:45:04;;;;;;;7.68;4.28;;;16.80;99.90;;;;;;4996590;28;20276;-88
2022/08/02 00:47:30;;;;;;;6.60;3.72;;;16.80;99.90;;;;;;4995756;28;20196;-87
2022/08/02 00:49:55;;;;;;;6.53;4.10;;;16.80;99.90;;;;;;5014149;28;20177;-88
2022/08/02 00:52:22;;;;;;;6.82;3.85;;;16.80;99.90;;;;;;5013413;28;20182;-88
2022/08/02 00:54:49;;;;;;;8.90;4.70;;;16.90;99.90;;;;;;4995972;28;20189;-86
2022/08/02 00:57:14;;;;;;;7.20;4.30;;;16.80;99.90;;;;;;4996949;28;20217;-86
2022/08/02 00:59:40;;;;;;;6.50;4.53;;;16.80;99.90;;;;;;5007694;28;20574;-88
2022/08/02 01:02:07;;;;;;;7.30;4.97;;;16.90;99.90;;;;;;4994155;28;20181;-88
2022/08/02 01:04:32;;;;;;;6.50;4.50;;;16.90;99.90;;;;;;4993664;28;20360;-88
2022/08/02 01:07:00;;;;;;;5.03;3.92;;;16.90;99.90;;;;;;4994013;28;20261;-88
2022/08/02 01:09:26;;;;;;;5.40;4.05;;;16.90;99.90;;;;;;4976261;28;20232;-88
2022/08/02 01:11:52;;;;;;;6.75;4.40;;;16.90;99.90;;;;;;4978052;28;20542;-88
2022/08/02 01:14:18;;;;;;;5.32;3.90;;;16.90;99.90;;;;;;4993831;28;20186;-87
2022/08/02 01:16:51;;;;;;;7.00;4.07;;;16.90;99.90;;;;;;4992011;28;20623;-89
2022/08/02 01:19:26;;;;;;;5.63;4.10;;;16.90;99.90;;;;;;5012618;28;20174;-86
2022/08/02 01:22:07;;;;;;;7.00;4.05;;;16.80;99.90;;;;;;5016755;28;20172;-89
2022/08/02 01:24:32;;;;;;;6.18;4.38;;;16.80;99.90;;;;;;5017147;28;20215;-89
2022/08/02 01:27:33;;;;;;;7.13;4.13;;;16.90;99.90;;;;;;5014292;28;20182;-89
2022/08/02 01:30:01;;;;;;;5.45;3.45;;;16.90;99.90;;;;;;4990486;28;20545;-88
2022/08/02 01:32:37;;;;;;;4.72;3.70;;;17.00;99.90;;;;;;4988066;28;20272;-88
2022/08/02 01:35:10;;;;;;;5.88;3.95;;;17.00;99.90;;;;;;5000726;28;20732;-89
2022/08/02 01:37:52;;;;;;;7.57;4.65;;;17.00;99.90;;;;;;5016947;28;20161;-88
2022/08/02 01:40:26;;;;;;;4.88;4.15;;;17.00;99.90;;;;;;5017319;28;20622;-88
2022/08/02 01:42:56;;;;;;;5.25;3.63;;;17.10;99.90;;;;;;5001922;28;20705;-89
2022/08/02 01:45:24;;;;;;;5.40;3.70;;;17.10;99.90;;;;;;4996941;28;20225;-88
2022/08/02 01:47:51;;;;;;;4.68;3.45;;;17.10;99.90;;;;;;4997378;28;20174;-88
2022/08/02 01:50:24;;;;;;;5.95;3.85;;;17.10;99.90;;;;;;4979895;28;20297;-88
2022/08/02 01:52:54;;;;;;;5.60;3.85;;;17.10;99.90;;;;;;4997318;28;20189;-88
2022/08/02 01:55:26;;;;;;;10.00;3.80;;;17.10;99.90;;;;;;4997197;28;20174;-88
2022/08/02 01:57:57;;;;;;;5.70;4.40;;;17.10;99.90;;;;;;5000315;28;20215;-88
2022/08/02 02:00:27;;;;;;;7.60;4.25;;;17.10;99.90;;;;;;5015989;28;20169;-86
2022/08/02 02:02:55;;;;;;;6.20;3.90;;;17.10;99.90;;;;;;5016565;28;20201;-88
2022/08/02 02:05:25;;;;;;;6.82;4.60;;;17.10;99.90;;;;;;5015902;28;20228;-89
2022/08/02 02:07:55;;;;;;;11.43;4.68;;;17.20;99.90;;;;;;4991699;28;20273;-88
2022/08/02 02:10:30;;;;;;;6.75;3.83;;;17.10;99.90;;;;;;4997310;28;20174;-89
2022/08/02 02:13:01;;;;;;;5.38;3.75;;;17.20;99.90;;;;;;4996830;28;20233;-88
2022/08/02 02:15:28;;;;;;;5.43;3.67;;;17.10;99.90;;;;;;4979366;28;20181;-89
2022/08/02 02:17:56;;;;;;;5.38;3.85;;;17.20;99.90;;;;;;4997690;28;20636;-88
2022/08/02 02:20:23;;;;;;;5.72;4.32;;;17.20;99.90;;;;;;5010159;28;20190;-88
2022/08/02 02:22:49;;;;;;;5.20;4.10;;;17.20;99.90;;;;;;5016090;28;20237;-88
2022/08/02 02:25:19;;;;;;;8.18;4.38;;;17.10;99.90;;;;;;5016102;28;20176;-88
2022/08/02 02:28:08;;;;;;;4.10;3.70;;;17.10;99.90;;;;;;5007125;28;20197;-88
2022/08/02 02:30:37;;;;;;;5.38;4.25;;;17.10;99.90;;;;;;4999552;28;20178;-88
2022/08/02 02:33:05;;;;;;;7.65;4.70;;;17.10;99.90;;;;;;5006368;28;20184;-88
2022/08/02 02:35:35;;;;;;;6.53;3.90;;;17.10;99.90;;;;;;4998002;28;20239;-88
2022/08/02 02:38:03;;;;;;;6.72;3.40;;;17.20;99.90;;;;;;4998706;28;20533;-88
2022/08/02 02:40:30;;;;;;;8.00;3.90;;;17.20;99.90;;;;;;5015670;28;20205;-86
2022/08/02 02:42:58;;;;;;;7.20;4.55;;;17.20;99.90;;;;;;5015530;28;20670;-89
2022/08/02 02:45:25;;;;;;;6.35;3.47;;;17.20;99.90;;;;;;5015859;28;20200;-89
2022/08/02 02:47:52;;;;;;;5.57;3.70;;;17.20;99.90;;;;;;4999144;28;20186;-88
2022/08/02 02:50:18;;;;;;;4.63;3.92;;;17.20;99.90;;;;;;4978651;28;20178;-88
2022/08/02 02:52:45;;;;;;;4.28;3.42;;;17.20;99.90;;;;;;4996108;28;20178;-88
2022/08/02 02:55:12;;;;;;;9.05;4.13;;;17.20;99.90;;;;;;4979004;28;20190;-87
2022/08/02 02:57:39;;;;;;;6.13;3.78;;;17.20;99.90;;;;;;5001426;28;20173;-90
2022/08/02 03:00:11;;;;;;;4.40;3.15;;;17.20;99.90;;;;;;4996522;28;20200;-87
2022/08/02 03:02:42;;;;;;;4.43;3.22;;;17.20;99.90;;;;;;5007368;28;20274;-86
2022/08/02 03:05:09;;;;;;;4.93;3.45;;;17.30;99.90;;;;;;4995924;28;20635;-87
2022/08/02 03:07:35;;;;;;;6.25;3.78;;;17.30;99.90;;;;;;4995170;28;20277;-87
2022/08/02 03:10:06;;;;;;;4.38;3.50;;;17.30;99.90;;;;;;4996067;28;20667;-89
2022/08/02 03:12:33;;;;;;;4.95;3.38;;;17.40;99.90;;;;;;4988198;28;20177;-88
2022/08/02 03:15:02;;;;;;;5.47;4.07;;;17.30;99.90;;;;;;4982170;28;20241;-86
2022/08/02 03:17:42;;;;;;;4.80;3.70;;;17.40;99.90;;;;;;4995590;28;20221;-87
2022/08/02 03:20:12;;;;;;;6.15;4.28;;;17.40;99.90;;;;;;4995732;28;20177;-88
2022/08/02 03:22:38;;;;;;;4.75;3.58;;;17.40;99.90;;;;;;4978019;28;20194;-89
2022/08/02 03:25:05;;;;;;;4.63;3.50;;;17.40;99.90;;;;;;4996895;28;20178;-89
2022/08/02 03:27:31;;;;;;;5.78;4.75;;;17.50;99.90;;;;;;5003453;28;20177;-87
2022/08/02 03:29:57;;;;;;;6.25;4.47;;;17.50;99.90;;;;;;4997018;28;20260;-88
2022/08/02 03:32:23;;;;;;;6.85;3.92;;;17.40;99.90;;;;;;4997623;28;20177;-88
2022/08/02 03:34:48;;;;;;;4.53;3.45;;;17.50;99.90;;;;;;5006070;28;20292;-86
2022/08/02 03:37:14;;;;;;;5.53;3.70;;;17.50;99.90;;;;;;4995288;28;20699;-87
2022/08/02 03:39:40;;;;;;;6.30;4.13;;;17.50;99.90;;;;;;4994941;28;20241;-89
2022/08/02 03:42:07;;;;;;;5.57;4.22;;;17.50;99.90;;;;;;4979752;28;20643;-88
2022/08/02 03:44:34;;;;;;;5.95;3.58;;;17.50;99.90;;;;;;4990974;28;20237;-88
2022/08/02 03:47:00;;;;;;;4.50;3.53;;;17.50;99.90;;;;;;5001923;28;20181;-89
2022/08/02 03:49:27;;;;;;;5.80;3.85;;;17.50;99.90;;;;;;5004199;28;20236;-89
2022/08/02 03:51:54;;;;;;;5.25;4.00;;;17.60;99.90;;;;;;4980313;28;20560;-87
2022/08/02 03:54:20;;;;;;;4.07;3.67;;;17.60;99.90;;;;;;5015050;28;20288;-88
2022/08/02 03:56:46;;;;;;;6.95;4.32;;;17.60;99.90;;;;;;5014464;28;20181;-89
2022/08/02 03:59:13;;;;;;;5.25;4.15;;;17.70;99.90;;;;;;4997061;28;20192;-88
2022/08/02 04:01:39;;;;;;;9.98;4.97;;;17.60;99.90;;;;;;5014847;28;20177;-87
2022/08/02 04:04:05;;;;;;;8.23;4.20;;;17.80;99.90;;;;;;5014267;28;20289;-88
2022/08/02 04:06:32;;;;;;;5.10;3.72;;;17.80;99.90;;;;;;5014407;28;20192;-88
2022/08/02 04:08:57;;;;;;;5.25;4.32;;;17.70;99.90;;;;;;5014016;28;20188;-88
2022/08/02 04:11:32;;;;;;;4.53;3.90;;;17.80;99.90;;;;;;5016457;28;20181;-89
2022/08/02 04:14:04;;;;;;;5.63;4.15;;;17.80;99.90;;;;;;5001818;28;20192;-89
2022/08/02 04:16:38;;;;;;;8.07;4.97;;;17.80;99.90;;;;;;5000592;28;20197;-87
2022/08/02 04:19:06;;;;;;;6.93;4.25;;;17.90;99.90;;;;;;5015603;28;20208;-88
2022/08/02 04:21:35;;;;;;;5.45;4.13;;;18.00;99.90;;;;;;4997021;28;20177;-88
2022/08/02 04:24:03;;;;;;;6.20;4.18;;;18.00;99.90;;;;;;5013703;28;20212;-87
2022/08/02 04:26:31;;;;;;;6.30;4.38;;;18.00;99.90;;;;;;5014017;28;20277;-88
2022/08/02 04:28:58;;;;;;;4.72;3.47;;;18.00;99.90;;;;;;5013895;28;20180;-88
2022/08/02 04:31:24;;;;;;;5.13;3.85;;;18.00;99.90;;;;;;5014161;28;20264;-88
2022/08/02 04:33:51;;;;;;;6.88;3.92;;;18.10;99.90;;;;;;5013324;28;20302;-88
2022/08/02 04:36:16;;;;;;;5.55;3.67;;;18.10;99.90;;;;;;4996321;28;20173;-88
2022/08/02 04:38:42;;;;;;;5.72;4.50;;;18.10;99.90;;;;;;5014061;28;20645;-88
2022/08/02 04:41:08;;;;;;;6.35;4.47;;;18.10;99.90;;;;;;5013450;28;20184;-87
2022/08/02 04:43:34;;;;;;;5.47;3.42;;;18.10;99.90;;;;;;5013780;28;20696;-88
2022/08/02 04:46:01;;;;;;;5.07;4.00;;;18.20;99.90;;;;;;5013747;28;20173;-88
2022/08/02 04:48:28;;;;;;;7.32;4.10;;;18.20;99.90;;;;;;5014534;28;20189;-89
2022/08/02 04:50:54;;;;;;;5.15;3.83;;;18.20;99.90;;;;;;4995840;28;20632;-89
2022/08/02 04:53:19;;;;;;;5.85;3.88;;;18.20;99.90;;;;;;5012523;28;20221;-88
2022/08/02 04:55:45;;;;;;;6.07;4.35;;;18.30;99.90;;;;;;5013818;28;20260;-89
2022/08/02 04:58:11;;;;;;;9.48;5.75;;;18.30;99.90;;;;;;4996026;28;20177;-89
2022/08/02 05:00:37;;;;;;;5.25;3.25;;;18.40;99.90;;;;;;4996805;28;20173;-88
2022/08/02 05:03:03;;;;;;;5.45;3.45;;;18.40;99.90;;;;;;5013065;28;20291;-89
2022/08/02 05:05:29;;;;;;;4.80;3.45;;;18.40;99.90;;;;;;5013643;28;20165;-88
2022/08/02 05:07:55;;;;;;;7.10;3.50;;;18.40;99.90;;;;;;4995797;28;20207;-88
2022/08/02 05:10:21;;;;;;;5.75;4.38;;;18.40;99.90;;;;;;5013568;28;20173;-88
2022/08/02 05:12:47;;;;;;;4.28;3.17;;;18.40;99.90;;;;;;5013882;28;20196;-89
2022/08/02 05:15:15;;;;;;;5.45;4.32;;;18.50;99.90;;;;;;5013711;28;20173;-88
2022/08/02 05:17:41;;;;;;;4.38;3.55;;;18.60;99.90;;;;;;5013929;28;20177;-88
2022/08/02 05:20:07;;;;;;;4.38;3.63;;;18.60;99.90;;;;;;5013260;28;20642;-88
2022/08/02 05:22:33;;;;;;;6.57;3.85;;;18.70;99.90;;;;;;5013356;28;20204;-88
2022/08/02 05:24:58;;;;;;;4.53;3.72;;;18.80;99.90;;;;;;5013221;28;20177;-88
2022/08/02 05:27:24;;;;;;;6.53;4.53;;;18.90;99.90;;;;;;5013729;28;20181;-88
2022/08/02 05:29:50;;;;;;;5.88;4.30;;;18.90;99.90;;;;;;5013724;28;20230;-89
2022/08/02 05:32:17;;;;;;;5.13;3.83;;;19.00;99.90;;;;;;5012943;28;20265;-88
2022/08/02 05:34:42;;;;;;;5.65;4.20;;;19.00;99.90;;;;;;5012957;28;20229;-88
2022/08/02 05:37:08;;;;;;;6.20;4.30;;;18.90;99.90;;;;;;5029118;28;20177;-87
2022/08/02 05:39:33;;;;;;;6.65;4.70;;;19.10;99.90;;;;;;5017921;28;20205;-86
2022/08/02 05:41:59;;;;;;;8.77;5.13;;;19.20;99.90;;;;;;5032000;28;20228;-87
2022/08/02 05:44:25;;;;;;;6.30;4.45;;;19.20;99.90;;;;;;5017856;28;20698;-88
2022/08/02 05:46:50;;;;;;;5.32;4.13;;;19.30;99.90;;;;;;5013717;28;20316;-89
2022/08/02 05:49:16;;;;;;;4.45;3.80;;;19.40;99.90;;;;;;4998751;28;20190;-89
2022/08/02 05:51:58;;;;;;;5.55;3.58;;;19.50;99.90;;;;;;4987752;28;20204;-86
2022/08/02 05:54:42;;;;;;;5.95;4.72;;;19.50;99.90;;;;;;5002744;28;20173;-87
2022/08/02 05:57:43;;;;;;;4.35;3.53;;;19.60;99.90;;;;;;5000686;28;20171;-87
2022/08/02 06:00:13;;;;;;;9.05;3.95;;;19.60;99.90;;;;;;4973454;28;20180;-87
2022/08/02 06:02:41;;;;;;;7.63;4.57;;;19.60;99.90;;;;;;5007236;28;20200;-87
2022/08/02 06:05:07;;;;;;;8.07;4.55;;;19.60;99.90;;;;;;5012015;28;20205;-88
2022/08/02 06:07:35;;;;;;;5.57;3.83;;;19.60;99.90;;;;;;5005412;28;20185;-87
2022/08/02 06:10:05;;;;;;;6.82;5.38;;;19.70;99.90;;;;;;5003436;28;20640;-87
2022/08/02 06:12:34;;;;;;;5.63;4.28;;;19.70;99.90;;;;;;5005614;28;20192;-88
2022/08/02 06:15:02;;;;;;;6.22;4.93;;;19.80;99.90;;;;;;5002711;28;20264;-90
2022/08/02 06:17:29;;;;;;;9.35;6.25;;;20.00;99.90;;;;;;5019348;28;20242;-88
2022/08/02 06:19:57;;;;;;;9.52;5.80;;;20.20;99.90;;;;;;5024676;28;20237;-88
2022/08/02 06:22:25;;;;;;;7.10;5.30;;;20.40;99.90;;;;;;5028818;28;20178;-88
2022/08/02 06:24:53;;;;;;;10.07;5.57;;;20.50;99.90;;;;;;5032679;28;20201;-88
2022/08/02 06:27:20;;;;;;;7.38;5.47;;;20.70;99.90;;;;;;5029159;28;20244;-87
2022/08/02 06:29:48;;;;;;;8.30;5.70;;;20.80;99.90;;;;;;5029820;28;20189;-88
2022/08/02 06:32:18;;;;;;;7.85;4.75;;;21.00;99.90;;;;;;5015366;28;20192;-88
2022/08/02 06:34:45;;;;;;;10.05;4.18;;;21.10;99.90;;;;;;5016595;28;20237;-88
2022/08/02 06:37:45;;;;;;;6.60;4.25;;;21.20;99.90;;;;;;4998954;28;20208;-87
2022/08/02 06:40:24;;;;;;;5.88;3.90;;;21.40;99.90;;;;;;4993431;28;20304;-85
2022/08/02 06:43:15;;;;;;;5.30;3.42;;;21.60;99.90;;;;;;5016063;28;20205;-86
2022/08/02 06:45:40;;;;;;;2.80;2.28;;;21.80;99.90;;;;;;5015866;28;20181;-87
2022/08/02 06:48:08;;;;;;;5.72;3.13;;;21.90;99.90;;;;;;5014911;28;20184;-87
2022/08/02 06:50:37;;;;;;;3.38;2.03;;;22.00;99.90;;;;;;5015952;28;20185;-88
2022/08/02 06:53:03;;;;;;;3.20;2.30;;;22.20;99.90;;;;;;5014534;28;20272;-87
2022/08/02 06:55:31;;;;;;;2.38;1.88;;;22.30;99.90;;;;;;5015762;28;20626;-87
2022/08/02 06:57:59;;;;;;;2.63;1.95;;;22.40;99.90;;;;;;5015866;28;20268;-87
2022/08/02 07:00:27;;;;;;;2.40;1.80;;;22.50;99.90;;;;;;4997721;28;20946;-88
2022/08/02 07:02:52;;;;;;;2.30;2.10;;;22.60;99.90;;;;;;5005921;28;20741;-87
2022/08/02 07:05:18;;;;;;;1.63;1.42;;;22.60;99.90;;;;;;4996974;28;20425;-88
2022/08/02 07:07:44;;;;;;;1.52;1.35;;;22.70;99.90;;;;;;5014856;28;20260;-87
2022/08/02 07:10:12;;;;;;;2.58;1.58;;;22.70;99.90;;;;;;4997168;28;20181;-88
2022/08/02 07:12:38;;;;;;;2.28;1.42;;;22.80;99.90;;;;;;5014568;28;20181;-88
2022/08/02 07:15:06;;;;;;;2.15;1.40;;;22.90;99.90;;;;;;5014780;28;20268;-87
2022/08/02 07:17:32;;;;;;;1.65;1.55;;;23.00;99.90;;;;;;4996461;28;20212;-88
2022/08/02 07:19:59;;;;;;;2.55;1.70;;;23.10;99.90;;;;;;5014267;28;20264;-87
2022/08/02 07:22:26;;;;;;;1.58;1.35;;;23.20;99.90;;;;;;5014275;28;20264;-87
2022/08/02 07:24:53;;;;;;;1.85;1.63;;;23.20;99.90;;;;;;4997022;28;20350;-88
2022/08/02 07:27:22;;;;;;;3.33;1.63;;;23.20;99.90;;;;;;4996834;28;20185;-88
2022/08/02 07:29:48;;;;;;;2.45;1.40;;;23.30;99.90;;;;;;5014612;28;20182;-88
2022/08/02 07:32:18;;;;;;;1.45;1.35;;;23.40;99.90;;;;;;5007499;28;20663;-90
2022/08/02 07:34:45;;;;;;;1.80;1.58;;;23.50;99.90;;;;;;5002471;28;20239;-90
2022/08/02 07:37:10;;;;;;;2.03;1.42;;;23.40;99.90;;;;;;4980864;28;20217;-86
2022/08/02 07:39:36;;;;;;;1.63;1.33;;;23.50;99.90;;;;;;5014880;28;20217;-89
2022/08/02 07:42:02;;;;;;;1.63;1.33;;;23.60;99.90;;;;;;5015129;28;20247;-88
2022/08/02 07:44:33;;;;;;;2.65;1.92;;;23.70;99.90;;;;;;5014185;28;20738;-87
2022/08/02 07:47:02;;;;;;;1.83;1.58;;;23.80;99.90;;;;;;4998738;28;20166;-87
2022/08/02 07:49:28;;;;;;;2.20;1.73;;;23.90;99.90;;;;;;4997219;28;20629;-87
2022/08/02 07:51:54;;;;;;;4.75;3.20;;;23.90;99.90;;;;;;4998010;28;20681;-89
2022/08/02 07:54:20;;;;;;;3.97;1.95;;;23.90;99.90;;;;;;4998934;28;20185;-88
2022/08/02 07:56:46;;;;;;;1.85;1.63;;;23.90;99.90;;;;;;4997935;28;20179;-89
2022/08/02 07:59:11;;;;;;;2.65;2.10;;;23.90;99.90;;;;;;4997401;28;20280;-88
2022/08/02 08:01:37;;;;;;;1.98;1.77;;;24.00;99.90;;;;;;5014414;28;20216;-89
2022/08/02 08:04:03;;;;;;;1.60;1.50;;;24.00;99.90;;;;;;5015051;28;20204;-89
2022/08/02 08:06:30;;;;;;;2.35;2.10;;;24.00;99.90;;;;;;4997018;28;20236;-90
2022/08/02 08:08:56;;;;;;;2.63;1.80;;;24.00;99.90;;;;;;5014724;28;20229;-88
2022/08/02 08:11:22;;;;;;;2.45;1.45;;;24.00;99.90;;;;;;5013910;28;20520;-87
2022/08/02 08:13:48;;;;;;;2.72;1.73;;;24.00;99.90;;;;;;5000275;28;20196;-89
2022/08/02 08:16:13;;;;;;;3.80;1.73;;;23.90;99.90;;;;;;4985931;28;20559;-87
2022/08/02 08:18:39;;;;;;;1.70;1.60;;;23.80;99.90;;;;;;5005161;28;20232;-88
2022/08/02 08:21:05;;;;;;;2.60;1.90;;;23.70;99.90;;;;;;5014216;28;20582;-88
2022/08/02 08:23:31;;;;;;;2.00;1.60;;;23.70;99.90;;;;;;5014199;28;20216;-89
2022/08/02 08:25:56;;;;;;;1.98;1.50;;;23.70;99.90;;;;;;4993744;28;20580;-88
2022/08/02 08:28:22;;;;;;;1.55;1.45;;;23.90;99.90;;;;;;4989945;28;20301;-88
2022/08/02 08:30:48;;;;;;;1.75;1.63;;;24.00;99.90;;;;;;5002292;28;20239;-88
2022/08/02 08:33:14;;;;;;;1.70;1.58;;;24.00;99.90;;;;;;5005318;28;20646;-89
2022/08/02 08:35:40;;;;;;;2.10;1.67;;;23.90;99.90;;;;;;5014174;28;20225;-90
2022/08/02 08:38:06;;;;;;;1.67;1.58;;;23.90;99.90;;;;;;5017517;28;20690;-89
2022/08/02 08:40:31;;;;;;;1.02;0.95;;;23.70;99.90;;;;;;5014061;28;20181;-89
2022/08/02 08:42:57;;;;;;;1.52;1.10;;;23.80;99.90;;;;;;4980075;28;20213;-89
2022/08/02 08:45:23;;;;;;;1.60;1.50;;;23.80;99.90;;;;;;5013896;28;20232;-89
2022/08/02 08:48:06;;;;;;;1.77;1.40;;;24.00;99.90;;;;;;5015579;28;20204;-88
2022/08/02 08:50:35;;;;;;;3.38;1.88;;;24.10;99.90;;;;;;5013730;28;20228;-88
2022/08/02 08:53:06;;;;;;;1.67;1.58;;;24.40;99.90;;;;;;4996182;28;20275;-90
2022/08/02 08:55:33;;;;;;;2.60;2.00;;;24.70;99.90;;;;;;5013722;28;20208;-91
2022/08/02 08:58:01;;;;;;;2.95;1.40;;;24.80;99.90;;;;;;5014308;28;20188;-86
2022/08/02 09:00:30;;;;;;;2.35;1.52;;;24.90;99.90;;;;;;5013375;28;20177;-89
2022/08/02 09:02:56;;;;;;;1.40;1.30;;;25.00;99.90;;;;;;5013215;28;20227;-91
2022/08/02 09:05:21;;;;;;;5.00;1.30;;;25.10;99.90;;;;;;5013670;28;20182;-89
2022/08/02 09:07:48;;;;;;;2.40;1.75;;;25.30;99.90;;;;;;5013201;28;20178;-90
2022/08/02 09:10:34;;;;;;;4.00;2.33;;;25.40;99.90;;;;;;4979729;28;20193;-89
2022/08/02 09:13:07;;;;;;;2.55;1.92;;;25.50;99.90;;;;;;5013231;28;20614;-88
2022/08/02 09:15:33;;;;;;;1.83;1.67;;;25.60;99.90;;;;;;5013101;28;20165;-89
2022/08/02 09:17:59;;;;;;;3.88;1.42;;;25.70;99.90;;;;;;4996247;28;20181;-89
2022/08/02 09:20:24;;;;;;;2.13;1.58;;;25.50;99.10;;;;;;5013631;28;20180;-92
2022/08/02 09:23:10;;;;;;;2.33;2.10;;;25.30;99.90;;;;;;5013320;28;20192;-90
2022/08/02 09:25:37;;;;;;;2.03;1.50;;;25.00;99.90;;;;;;4995436;28;20185;-91
2022/08/02 09:28:05;;;;;;;1.63;1.48;;;25.00;99.90;;;;;;5013305;28;20184;-89
2022/08/02 09:30:32;;;;;;;1.48;1.08;;;25.00;99.90;;;;;;5012990;28;20284;-91
2022/08/02 09:32:58;;;;;;;2.20;1.50;;;25.20;99.90;;;;;;4995711;28;20231;-90
2022/08/02 09:35:35;;;;;;;1.50;1.40;;;25.40;99.90;;;;;;5012846;28;20229;-90
2022/08/02 09:38:12;;;;;;;2.30;1.70;;;25.50;99.90;;;;;;4995842;28;20173;-91
2022/08/02 09:40:39;;;;;;;1.67;1.38;;;25.70;99.70;;;;;;4995654;28;20181;-90
2022/08/02 09:43:08;;;;;;;1.63;1.38;;;25.90;99.20;;;;;;5018105;28;20217;-89
2022/08/02 09:45:35;;;;;;;1.30;1.20;;;26.00;99.00;;;;;;5016565;28;20185;-90
2022/08/02 09:48:08;;;;;;;1.50;1.25;;;25.80;97.90;;;;;;4999339;28;20178;-90
2022/08/02 09:50:36;;;;;;;1.70;1.48;;;25.50;99.00;;;;;;4983196;28;20193;-89
2022/08/02 09:53:09;;;;;;;1.60;1.40;;;25.50;99.90;;;;;;5017503;28;20181;-88
2022/08/02 09:55:35;;;;;;;1.58;1.48;;;25.70;99.90;;;;;;4998998;28;20276;-89
2022/08/02 09:58:17;;;;;;;1.75;1.38;;;25.80;97.30;;;;;;4999388;28;20185;-87
2022/08/02 10:00:57;;;;;;;2.20;1.80;;;26.00;98.40;;;;;;5016303;28;20169;-90
2022/08/02 10:03:23;;;;;;;2.00;1.67;;;26.20;97.30;;;;;;5016398;28;20300;-90
2022/08/02 10:05:54;;;;;;;1.55;1.27;;;26.30;96.80;;;;;;5016309;28;20762;-87
2022/08/02 10:08:20;;;;;;;1.58;1.42;;;26.40;94.70;;;;;;5017070;28;20196;-90
2022/08/02 10:10:47;;;;;;;1.65;1.30;;;26.50;95.30;;;;;;5016621;28;20182;-89
2022/08/02 10:13:14;;;;;;;1.52;1.40;;;26.60;92.70;;;;;;5016163;28;20181;-89
2022/08/02 10:15:39;;;;;;;1.15;1.05;;;26.50;92.50;;;;;;4998209;28;20185;-90
2022/08/02 10:18:06;;;;;;;1.92;1.38;;;26.40;92.20;;;;;;4998853;28;20657;-90
2022/08/02 10:20:42;;;;;;;3.30;1.75;;;26.50;95.00;;;;;;4998831;28;20192;-90
2022/08/02 10:23:11;;;;;;;1.33;1.23;;;26.70;93.90;;;;;;5016223;28;20189;-91
2022/08/02 10:25:38;;;;;;;1.92;1.38;;;26.90;94.30;;;;;;5015022;28;20268;-87
2022/08/02 10:28:06;;;;;;;1.52;1.40;;;27.10;94.40;;;;;;4991976;28;20702;-89
2022/08/02 10:30:36;;;;;;;1.45;1.17;;;27.00;93.10;;;;;;4989750;28;20181;-90
2022/08/02 10:33:04;;;;;;;2.03;1.42;;;26.80;92.60;;;;;;4999511;28;20181;-89
2022/08/02 10:35:36;;;;;;;2.60;2.00;;;27.80;93.30;;;;;;5001261;28;20228;-88
2022/08/02 10:38:06;;;;;;;1.52;1.27;;;26.60;93.70;;;;;;5004681;28;20187;-88
2022/08/02 10:40:45;;;;;;;1.90;1.40;;;26.50;92.00;;;;;;4988651;28;20181;-91
2022/08/02 10:43:12;;;;;;;1.50;1.35;;;26.80;92.40;;;;;;4971877;28;20225;-86
2022/08/02 10:45:38;;;;;;;3.55;1.70;;;26.90;92.80;;;;;;5002540;28;20273;-87
2022/08/02 10:48:13;;;;;;;0.95;0.93;;;27.20;92.30;;;;;;4969233;28;20203;-88
2022/08/02 10:50:45;;;;;;;1.27;1.17;;;27.30;91.40;;;;;;5006801;28;20185;-86
2022/08/02 10:53:31;;;;;;;1.42;1.33;;;27.40;90.60;;;;;;4993353;28;20460;-87
2022/08/02 10:55:59;;;;;;;1.88;1.50;;;27.40;89.90;;;;;;4989139;28;20219;-88
2022/08/02 10:58:27;;;;;;;1.63;1.33;;;27.70;90.90;;;;;;5007992;28;20185;-86
2022/08/02 11:00:53;;;;;;;1.70;1.52;;;27.70;89.10;;;;;;5019326;28;20189;-87
2022/08/02 11:03:28;;;;;;;1.05;0.80;;;27.80;87.90;;;;;;5009807;28;20224;-87
2022/08/02 11:06:05;;;;;;;1.30;1.10;;;27.70;86.90;;;;;;5010937;28;20188;-87
2022/08/02 11:08:31;;;;;;;1.40;0.93;;;27.70;85.20;;;;;;5025200;28;20180;-86
2022/08/02 11:11:08;;;;;;;1.23;1.13;;;27.70;86.50;;;;;;4998636;28;20324;-87
2022/08/02 11:14:03;;;;;;;1.10;1.00;;;27.80;87.00;;;;;;4988871;28;20653;-86
2022/08/02 11:16:56;;;;;;;1.33;1.17;;;28.00;83.70;;;;;;5014421;28;20197;-86
2022/08/02 11:19:26;;;;;;;1.40;1.20;;;28.10;86.00;;;;;;5026731;28;20173;-86
2022/08/02 11:22:08;;;;;;;1.30;1.20;;;28.20;84.20;;;;;;5025967;28;20169;-86
2022/08/02 11:24:35;;;;;;;1.30;1.20;;;28.00;82.10;;;;;;5014805;28;20302;-87
2022/08/02 11:27:07;;;;;;;2.72;1.00;;;28.00;82.70;;;;;;5008894;28;20678;-87
2022/08/02 11:29:42;;;;;;;1.40;1.08;;;28.10;83.90;;;;;;4994519;28;20207;-86
2022/08/02 11:32:19;;;;;;;1.42;1.23;;;28.30;85.50;;;;;;5002933;28;20189;-87
2022/08/02 11:34:52;;;;;;;3.10;1.20;;;28.40;82.90;;;;;;5008073;28;20229;-88
2022/08/02 11:37:47;;;;;;;1.33;1.13;;;28.40;83.00;;;;;;5003604;28;20268;-89
2022/08/02 11:40:17;;;;;;;1.42;1.23;;;28.40;81.90;;;;;;4956045;28;20202;-91
2022/08/02 11:42:45;;;;;;;1.50;1.25;;;28.20;82.80;;;;;;4995222;28;20181;-88
2022/08/02 11:45:15;;;;;;;1.80;1.45;;;28.00;82.40;;;;;;5000075;28;20201;-88
2022/08/02 11:47:53;;;;;;;1.13;0.93;;;28.00;81.50;;;;;;5007317;28;20631;-89
2022/08/02 11:50:23;;;;;;;1.10;1.00;;;27.80;80.90;;;;;;4991868;28;20193;-90
2022/08/02 11:52:52;;;;;;;1.02;1.00;;;27.70;84.70;;;;;;4984366;28;20193;-91
2022/08/02 11:55:29;;;;;;;0.93;0.88;;;27.90;82.90;;;;;;4994177;28;20220;-91
2022/08/02 11:57:59;;;;;;;0.63;0.63;;;28.90;77.70;;;;;;4993006;28;20213;-89
2022/08/02 12:00:25;;;;;;;1.30;1.10;;;27.80;77.60;;;;;;4993590;28;20193;-91
2022/08/02 12:02:51;;;;;;;1.08;0.95;;;27.90;79.00;;;;;;4988150;28;20226;-91
2022/08/02 12:05:20;;;;;;;1.52;1.10;;;28.00;81.60;;;;;;4973204;28;20536;-89
2022/08/02 12:07:46;;;;;;;0.90;0.90;;;28.20;80.20;;;;;;4992693;28;20192;-90
2022/08/02 12:10:20;;;;;;;1.85;1.00;;;28.20;78.60;;;;;;4979726;28;20194;-90
2022/08/02 12:12:58;;;;;;;1.10;0.98;;;27.90;78.00;;;;;;4995364;28;20210;-91
2022/08/02 12:15:40;;;;;;;1.40;1.13;;;27.80;80.70;;;;;;5014533;28;20285;-89
2022/08/02 12:20:56;;;;;;;0.90;0.90;;;27.70;79.70;;;;;;5013250;28;20215;-90
2022/08/02 12:23:22;;;;;;;1.25;1.08;;;27.60;79.50;;;;;;5005473;28;20198;-88
2022/08/02 12:26:08;;;;;;;1.20;1.00;;;27.50;77.70;;;;;;4986214;28;20209;-89
2022/08/02 12:28:38;;;;;;;1.27;0.93;;;27.30;79.80;;;;;;5001569;28;20186;-89
2022/08/02 12:31:06;;;;;;;1.00;0.93;;;27.40;80.90;;;;;;4993110;28;20276;-88
2022/08/02 12:33:48;;;;;;;1.17;1.08;;;27.70;81.40;;;;;;4976381;28;20281;-91
2022/08/02 12:36:18;;;;;;;1.00;0.90;;;27.90;80.80;;;;;;5011946;28;20236;-90
2022/08/02 12:41:36;;;;;;;0.80;0.80;;;28.20;79.40;;;;;;5056460;23;20645;-88
2022/08/02 12:44:02;;;;;;;0.85;0.85;;;;;;;;;;5017198;28;20629;-90
2022/08/02 12:46:27;;;;;;;0.70;0.70;;;28.60;76.60;;;;;;5025355;28;20187;-90
2022/08/02 12:48:53;;;;;;;1.15;0.90;;;28.60;77.50;;;;;;5014061;28;20196;-89
2022/08/02 12:51:20;;;;;;;1.10;1.00;;;28.70;75.50;;;;;;4996018;28;20262;-91
2022/08/02 12:53:46;;;;;;;1.73;1.25;;;28.80;76.60;;;;;;5012153;28;20195;-89
2022/08/02 12:56:12;;;;;;;0.90;0.90;;;28.70;75.00;;;;;;4997527;28;20181;-90
2022/08/02 12:58:51;;;;;;;1.30;0.93;;;28.40;73.90;;;;;;5014805;28;20653;-91
2022/08/02 13:01:22;;;;;;;1.20;0.93;;;28.20;72.30;;;;;;4997339;28;20185;-89
2022/08/02 13:03:47;;;;;;;0.70;0.70;;;28.10;72.50;;;;;;5015045;28;20304;-91